Ray Brook, NY (12977)

11:21 AM EST on December 15, 2019 (GMT -0500)
Kiwassa Road | | Change Station
Active Advisory: Wind Advisory

Elev 1549 ft 44.32 °N, 74.13 °W | Updated 11 seconds ago

Overcast
Overcast
30 °F
Feels Like 30 °F
N
0
Wind Variable Wind from SSW
Gusts 0.0 mph

Today
High -- | Low -- °F
--% Chance of Precip.
Yesterday
High -- | Low -- °F
Precip. -- in
Pressure 29.49 in
Visibility 2.5 miles
Clouds Overcast 1300 ft
Windchill 30 °F
Dew Point 27 °F
Humidity 88%
Rainfall 0.00 in
Snow Depth Not available.
7:25 AM 4:17 PM
Waning Gibbous, 86% visible
SPECI KSLK 151539Z AUTO 24012G21KT 2 1/2SM -SN BR OVC013 M01/M03 A2949 RMK AO2 UPB20E25SNB16E20B25 P0000 T10111033
Pressure 29.49 in
Visibility 2.5 miles
Clouds Overcast 1300 ft
Windchill 30 °F
Dew Point 27 °F
Humidity 88%
Rainfall 0.00 in
Snow Depth Not available.
7:25 AM 4:17 PM
Waning Gibbous, 86% visible
SPECI KSLK 151539Z AUTO 24012G21KT 2 1/2SM -SN BR OVC013 M01/M03 A2949 RMK AO2 UPB20E25SNB16E20B25 P0000 T10111033

Get Your Daily Forecast Email!

Thanks for signing up!

Be on the lookout for a verification email in your inbox.

You'll start receiving severe weather alerts in your inbox..

×

10-Day Weather Forecast

Almanac

Astronomy

Dec. 15, 2019 Rise Set
Actual Time
Civil Twilight
Nautical Twilight
Astronomical Twilight
Moon
Length of Visible Light
Length of Day
Tomorrow will be .
, % of the Moon is Illuminated

Today's Extremes

State Highs State Lows

Community

WunderPhotos

Category 6

Welcome to Category 6. This is the collective home for Weather Underground's featured writeups by Dr. Jeff Masters (right), Bob Henson (left), Chris Burt, and other regular contributors.

Nearby

Air Quality

  Air Quality AQ Index Pollutant
Not available.

Snow Depth

Station Depth Elevation

Earthquake Activity

City Distance Mag. Time & Date
Minimum magnitude displayed is 2.5.

Coastal Water Temperatures

Place Temperature

Stations

Nearby Weather Stations

Station Location Temp. Windchill Dew Point Humidity Wind Precip. Elev Updated Type
                   

Watches & Warnings

Wind Advisory
Issued: 2:21 AM EST Dec. 15, 2019 – National Weather Service

... Wind Advisory in effect until 7 PM EST this evening...

* what... west winds 20 to 30 mph with gusts up to 50 mph
expected.

* Where... eastern Adirondack Mountains in northern New York and
portions of central, northern, and eastern Vermont, including
the Northeast Kingdom.

* When... until 7 PM EST this evening. The core of strongest winds
will occur from 9 am through 3 PM today.

* Impacts... gusty winds could blow around unsecured objects.
Tree limbs could be blown down and a few power outages may
result.

Precautionary/preparedness actions...

Use extra caution when driving, especially if operating a high
profile vehicle. Secure outdoor objects, including Christmas
decorations.